createdAt,value
2022-08-11T00:01:05.873Z,2.63
2022-08-11T00:02:23.388Z,2.50
2022-08-11T00:03:41.550Z,2.77
2022-08-11T00:04:55.977Z,2.80
2022-08-11T00:06:07.758Z,2.73
2022-08-11T00:07:19.384Z,2.47
2022-08-11T00:08:32.162Z,2.83
2022-08-11T00:09:43.780Z,2.73
2022-08-11T00:10:57.396Z,2.80
2022-08-11T00:12:16.113Z,2.43
2022-08-11T00:13:35.325Z,2.43
2022-08-11T00:14:55.285Z,2.93
2022-08-11T00:16:17.242Z,2.70
2022-08-11T00:17:30.833Z,2.17
2022-08-11T00:18:47.334Z,2.70
2022-08-11T00:20:11.604Z,2.50
2022-08-11T00:21:59.702Z,2.70
2022-08-11T00:23:06.207Z,2.60
2022-08-11T00:24:18.230Z,2.77
2022-08-11T00:25:29.976Z,2.30
2022-08-11T00:26:46.990Z,2.33
2022-08-11T00:27:58.534Z,2.33
2022-08-11T00:29:10.926Z,2.30
2022-08-11T00:30:22.478Z,2.27
2022-08-11T00:31:35.296Z,2.93
2022-08-11T00:32:54.354Z,2.73
2022-08-11T00:34:10.461Z,2.50
2022-08-11T00:35:55.653Z,2.57
2022-08-11T00:37:16.490Z,2.67
2022-08-11T00:38:29.989Z,2.67
2022-08-11T00:39:46.818Z,2.20
2022-08-11T00:41:07.031Z,2.77
2022-08-11T00:42:37.327Z,2.50
2022-08-11T00:43:58.324Z,2.77
2022-08-11T00:45:10.418Z,2.60
2022-08-11T00:46:41.302Z,2.60
2022-08-11T00:48:07.900Z,2.60
2022-08-11T00:49:19.579Z,2.50
2022-08-11T00:50:46.190Z,2.90
2022-08-11T00:52:15.898Z,2.70
2022-08-11T00:53:46.938Z,2.37
2022-08-11T00:55:01.289Z,2.63
2022-08-11T00:56:24.940Z,2.77
2022-08-11T00:57:39.281Z,2.47
2022-08-11T00:59:06.450Z,3.07
2022-08-11T01:01:01.278Z,2.47
2022-08-11T01:02:15.943Z,2.33
2022-08-11T01:03:43.907Z,2.60
2022-08-11T01:04:56.018Z,2.67
2022-08-11T01:06:29.096Z,2.37
2022-08-11T01:08:03.353Z,2.00
2022-08-11T01:09:33.619Z,2.60
2022-08-11T01:11:03.941Z,2.30
2022-08-11T01:12:15.910Z,2.50
2022-08-11T01:13:59.301Z,2.23
2022-08-11T01:15:34.421Z,2.50
2022-08-11T01:17:09.882Z,2.50
2022-08-11T01:18:40.628Z,2.23
2022-08-11T01:20:46.601Z,2.83
2022-08-11T01:22:01.685Z,2.80
2022-08-11T01:23:42.273Z,2.80
2022-08-11T01:24:57.394Z,2.80
2022-08-11T01:26:27.539Z,2.43
2022-08-11T01:27:57.559Z,3.17
2022-08-11T01:29:27.725Z,2.33
2022-08-11T01:30:57.796Z,2.53
2022-08-11T01:32:18.254Z,2.80
2022-08-11T01:33:48.232Z,2.67
2022-08-11T01:35:20.583Z,2.40
2022-08-11T01:36:32.091Z,2.27
2022-08-11T01:37:43.586Z,2.67
2022-08-11T01:39:04.747Z,2.83
2022-08-11T01:40:16.256Z,2.43
2022-08-11T01:41:52.415Z,2.50
2022-08-11T01:43:28.421Z,3.37
2022-08-11T01:44:52.513Z,2.47
2022-08-11T01:46:06.938Z,2.40
2022-08-11T01:47:52.891Z,2.60
2022-08-11T01:50:06.743Z,2.23
2022-08-11T01:51:09.281Z,2.43
2022-08-11T01:52:41.360Z,2.10
2022-08-11T01:53:56.671Z,2.50
2022-08-11T01:55:27.060Z,2.57
2022-08-11T01:56:45.326Z,3.23
2022-08-11T01:58:02.842Z,2.50
2022-08-11T01:59:14.759Z,2.90
2022-08-11T02:00:29.084Z,2.33
2022-08-11T02:01:40.978Z,2.60
2022-08-11T02:02:54.118Z,2.80
2022-08-11T02:04:14.420Z,2.37
2022-08-11T02:05:31.944Z,2.73
2022-08-11T02:06:56.300Z,2.57
2022-08-11T02:08:37.082Z,2.30
2022-08-11T02:09:54.488Z,2.50
2022-08-11T02:11:24.622Z,2.10
2022-08-11T02:12:40.240Z,2.70
2022-08-11T02:14:21.008Z,3.23
2022-08-11T02:15:38.858Z,2.63
2022-08-11T02:16:50.289Z,2.40
2022-08-11T02:18:07.869Z,2.20
2022-08-11T02:19:56.620Z,2.50
2022-08-11T02:21:30.291Z,3.10
2022-08-11T02:23:58.752Z,3.20
2022-08-11T02:25:00.153Z,2.17
2022-08-11T02:26:23.266Z,2.77
2022-08-11T02:27:47.367Z,2.30
2022-08-11T02:28:58.877Z,3.73
2022-08-11T02:30:12.691Z,3.03
2022-08-11T02:32:14.213Z,3.20
2022-08-11T02:33:27.604Z,3.00
2022-08-11T02:34:52.930Z,2.97
2022-08-11T02:36:20.100Z,3.13
2022-08-11T02:37:34.366Z,2.77
2022-08-11T02:38:55.106Z,2.90
2022-08-11T02:40:12.477Z,2.77
2022-08-11T02:42:01.414Z,2.70
2022-08-11T02:43:21.978Z,2.80
2022-08-11T02:44:59.905Z,3.50
2022-08-11T02:46:26.983Z,2.93
2022-08-11T02:48:04.208Z,2.63
2022-08-11T02:49:45.451Z,2.70
2022-08-11T02:51:21.158Z,3.00
2022-08-11T02:53:00.933Z,3.00
2022-08-11T02:54:17.726Z,2.80
2022-08-11T02:55:55.710Z,2.80
2022-08-11T02:57:11.216Z,3.37
2022-08-11T02:58:42.431Z,2.83
2022-08-11T03:00:07.870Z,3.00
2022-08-11T03:01:29.211Z,2.80
2022-08-11T03:02:41.313Z,3.30
2022-08-11T03:03:52.758Z,3.20
2022-08-11T03:05:20.996Z,2.70
2022-08-11T03:06:39.014Z,2.80
2022-08-11T03:08:12.647Z,2.43
2022-08-11T03:09:40.500Z,2.87
2022-08-11T03:11:25.993Z,3.13
2022-08-11T03:13:19.142Z,2.20
2022-08-11T03:15:08.092Z,2.67
2022-08-11T03:16:45.787Z,2.40
2022-08-11T03:17:57.313Z,2.60
2022-08-11T03:19:12.134Z,2.50
2022-08-11T03:20:33.367Z,2.67
2022-08-11T03:22:07.979Z,2.30
2022-08-11T03:23:54.861Z,2.50
2022-08-11T03:25:12.983Z,2.63
2022-08-11T03:26:33.658Z,2.27
2022-08-11T03:27:53.424Z,3.37
2022-08-11T03:29:11.867Z,2.87
2022-08-11T03:30:55.772Z,3.30
2022-08-11T03:32:07.289Z,2.83
2022-08-11T03:34:05.991Z,3.47
2022-08-11T03:35:21.316Z,3.53
2022-08-11T03:37:06.807Z,3.20
2022-08-11T03:38:15.411Z,3.53
2022-08-11T03:39:29.953Z,3.60
2022-08-11T03:42:02.394Z,4.33
2022-08-11T03:42:58.035Z,3.53
2022-08-11T03:44:15.640Z,3.87
2022-08-11T03:45:43.018Z,3.60
2022-08-11T03:47:06.883Z,3.43
2022-08-11T03:48:18.334Z,3.80
2022-08-11T03:49:48.377Z,4.10
2022-08-11T03:51:18.559Z,3.40
2022-08-11T03:52:32.824Z,3.33
2022-08-11T03:53:49.327Z,3.13
2022-08-11T03:55:04.619Z,3.70
2022-08-11T03:56:31.361Z,3.03
2022-08-11T03:57:45.614Z,3.30
2022-08-11T03:59:09.002Z,3.20
2022-08-11T04:00:23.320Z,3.83
2022-08-11T04:01:53.627Z,3.10
2022-08-11T04:03:31.303Z,2.90
2022-08-11T04:04:51.669Z,3.50
2022-08-11T04:06:11.850Z,3.40
2022-08-11T04:07:23.330Z,3.37
2022-08-11T04:08:37.824Z,4.07
2022-08-11T04:09:55.275Z,4.10
2022-08-11T04:11:11.276Z,4.50
2022-08-11T04:12:45.533Z,4.00
2022-08-11T04:14:29.608Z,3.63
2022-08-11T04:16:00.747Z,4.10
2022-08-11T04:17:22.881Z,4.07
2022-08-11T04:18:54.776Z,3.50
2022-08-11T04:20:32.386Z,3.83
2022-08-11T04:22:02.471Z,3.50
2022-08-11T04:24:35.793Z,3.83
2022-08-11T04:25:29.137Z,3.70
2022-08-11T04:26:59.103Z,3.83
2022-08-11T04:28:31.415Z,4.27
2022-08-11T04:30:01.989Z,3.63
2022-08-11T04:31:50.767Z,3.80
2022-08-11T04:32:59.865Z,3.60
2022-08-11T04:34:26.529Z,3.93
2022-08-11T04:35:53.326Z,3.30
2022-08-11T04:37:34.750Z,3.40
2022-08-11T04:39:05.380Z,4.07
2022-08-11T04:40:25.745Z,4.07
2022-08-11T04:42:14.445Z,3.50
2022-08-11T04:44:05.632Z,3.80
2022-08-11T04:45:25.254Z,3.40
2022-08-11T04:46:55.482Z,3.87
2022-08-11T04:48:33.439Z,3.57
2022-08-11T04:50:12.569Z,4.23
2022-08-11T04:52:01.682Z,3.80
2022-08-11T04:53:46.118Z,3.93
2022-08-11T04:55:41.310Z,4.00
2022-08-11T04:57:17.716Z,4.23
2022-08-11T04:59:02.225Z,4.17
2022-08-11T05:00:32.923Z,3.70
2022-08-11T05:01:55.545Z,4.17
2022-08-11T05:03:09.882Z,4.10
2022-08-11T05:04:58.584Z,3.73
2022-08-11T05:06:16.227Z,4.00
2022-08-11T05:07:45.957Z,4.27
2022-08-11T05:09:12.494Z,3.63
2022-08-11T05:10:43.326Z,4.03
2022-08-11T05:11:57.796Z,3.67
2022-08-11T05:13:41.074Z,4.03
2022-08-11T05:15:11.480Z,3.60
2022-08-11T05:16:44.712Z,3.90
2022-08-11T05:18:44.165Z,3.50
2022-08-11T05:20:14.002Z,3.90
2022-08-11T05:21:51.882Z,3.50
2022-08-11T05:23:25.603Z,3.00
2022-08-11T05:24:59.618Z,3.30
2022-08-11T05:26:46.383Z,3.63
2022-08-11T05:28:24.755Z,3.03
2022-08-11T05:30:00.052Z,3.70
2022-08-11T05:31:31.422Z,3.40
2022-08-11T05:33:03.421Z,3.33
2022-08-11T05:34:33.496Z,3.63
2022-08-11T05:36:01.567Z,3.63
2022-08-11T05:37:26.788Z,3.80
2022-08-11T05:38:58.037Z,3.53
2022-08-11T05:40:30.102Z,3.40
2022-08-11T05:42:00.866Z,3.47
2022-08-11T05:43:31.954Z,3.20
2022-08-11T05:45:04.065Z,3.53
2022-08-11T05:46:46.456Z,3.33
2022-08-11T05:48:16.609Z,3.40
2022-08-11T05:49:48.896Z,4.07
2022-08-11T05:51:25.846Z,3.47
2022-08-11T05:53:04.182Z,4.30
2022-08-11T05:54:35.243Z,3.97
2022-08-11T05:56:07.674Z,3.87
2022-08-11T05:57:39.570Z,3.40
2022-08-11T05:58:55.969Z,4.37
2022-08-11T06:00:11.031Z,3.80
2022-08-11T06:01:24.584Z,3.80
2022-08-11T06:02:55.350Z,3.63
2022-08-11T06:04:16.805Z,3.70
2022-08-11T06:05:38.520Z,3.80
2022-08-11T06:07:00.629Z,3.90
2022-08-11T06:08:12.649Z,4.20
2022-08-11T06:09:34.830Z,3.67
2022-08-11T06:10:46.799Z,3.73
2022-08-11T06:12:01.428Z,3.63
2022-08-11T06:13:16.832Z,4.43
2022-08-11T06:14:29.151Z,3.63
2022-08-11T06:15:44.521Z,3.67
2022-08-11T06:16:59.201Z,3.90
2022-08-11T06:18:12.255Z,3.77
2022-08-11T06:19:31.020Z,3.80
2022-08-11T06:20:51.497Z,3.73
2022-08-11T06:22:03.934Z,4.17
2022-08-11T06:23:18.786Z,4.57
2022-08-11T06:24:32.126Z,4.17
2022-08-11T06:25:43.940Z,4.53
2022-08-11T06:27:11.856Z,4.00
2022-08-11T06:28:35.043Z,4.10
2022-08-11T06:29:55.200Z,4.60
2022-08-11T06:31:16.523Z,4.57
2022-08-11T06:32:36.005Z,5.13
2022-08-11T06:33:50.527Z,5.10
2022-08-11T06:35:07.709Z,4.60
2022-08-11T06:36:31.211Z,4.17
2022-08-11T06:37:58.759Z,4.00
2022-08-11T06:39:34.646Z,3.93
2022-08-11T06:41:14.018Z,3.83
2022-08-11T06:42:45.802Z,3.70
2022-08-11T06:44:10.827Z,4.17
2022-08-11T06:45:31.356Z,4.27
2022-08-11T06:46:43.006Z,4.43
2022-08-11T06:47:55.867Z,4.77
2022-08-11T06:49:31.626Z,5.90
2022-08-11T06:51:06.894Z,4.60
2022-08-11T06:52:34.447Z,4.53
2022-08-11T06:54:03.903Z,5.17
2022-08-11T06:55:56.246Z,5.17
2022-08-11T06:57:32.420Z,4.70
2022-08-11T06:59:02.900Z,4.63
2022-08-11T07:00:28.705Z,3.87
2022-08-11T07:01:47.870Z,4.43
2022-08-11T07:03:10.476Z,4.23
2022-08-11T07:04:31.599Z,4.20
2022-08-11T07:05:48.635Z,5.07
2022-08-11T07:07:21.457Z,3.47
2022-08-11T07:08:51.437Z,3.87
2022-08-11T07:10:33.599Z,3.90
2022-08-11T07:12:18.879Z,4.03
2022-08-11T07:13:51.431Z,3.83
2022-08-11T07:15:24.783Z,3.90
2022-08-11T07:16:58.342Z,3.67
2022-08-11T07:18:40.170Z,4.50
2022-08-11T07:20:11.999Z,3.97
2022-08-11T07:22:02.553Z,4.17
2022-08-11T07:23:34.877Z,4.27
2022-08-11T07:25:15.884Z,4.23
2022-08-11T07:26:46.300Z,4.20
2022-08-11T07:28:29.553Z,4.60
2022-08-11T07:29:43.720Z,4.03
2022-08-11T07:30:58.518Z,4.50
2022-08-11T07:32:14.544Z,4.93
2022-08-11T07:34:08.528Z,4.27
2022-08-11T07:35:09.370Z,4.25
2022-08-11T07:36:23.123Z,3.97
2022-08-11T07:37:42.879Z,4.65
2022-08-11T07:38:56.272Z,3.45
2022-08-11T07:40:08.114Z,3.70
2022-08-11T07:41:21.093Z,3.78
2022-08-11T07:42:36.977Z,3.95
2022-08-11T07:43:50.443Z,3.85
2022-08-11T07:45:23.769Z,3.90
2022-08-11T07:47:01.128Z,3.85
2022-08-11T07:48:32.012Z,3.42
2022-08-11T07:50:03.428Z,3.83
2022-08-11T07:51:39.400Z,5.20
2022-08-11T07:52:52.841Z,3.70
2022-08-11T07:54:15.332Z,4.30
2022-08-11T07:55:50.750Z,3.28
2022-08-11T07:57:59.511Z,3.78
2022-08-11T07:59:13.459Z,3.33
2022-08-11T08:00:45.552Z,4.15
2022-08-11T08:02:22.107Z,3.40
2022-08-11T08:03:53.859Z,3.20
2022-08-11T08:05:24.968Z,3.30
2022-08-11T08:06:56.360Z,4.35
2022-08-11T08:08:27.312Z,4.03
2022-08-11T08:09:57.452Z,3.67
2022-08-11T08:11:27.982Z,3.25
2022-08-11T08:12:59.103Z,3.38
2022-08-11T08:14:29.485Z,4.22
2022-08-11T08:16:00.270Z,3.30
2022-08-11T08:17:30.224Z,3.38
2022-08-11T08:18:42.123Z,3.15
2022-08-11T08:19:54.177Z,3.03
2022-08-11T08:21:12.476Z,3.00
2022-08-11T08:22:37.400Z,3.30
2022-08-11T08:23:53.761Z,2.97
2022-08-11T08:25:08.421Z,2.53
2022-08-11T08:26:38.783Z,2.83
2022-08-11T08:27:51.214Z,3.20
2022-08-11T08:29:23.069Z,3.10
2022-08-11T08:30:55.489Z,4.38
2022-08-11T08:32:11.286Z,2.78
2022-08-11T08:33:28.254Z,3.28
2022-08-11T08:34:41.067Z,3.30
2022-08-11T08:36:11.807Z,3.22
2022-08-11T08:37:45.792Z,3.15
2022-08-11T08:38:57.533Z,3.67
2022-08-11T08:40:09.887Z,3.47
2022-08-11T08:41:29.265Z,2.83
2022-08-11T08:42:45.513Z,3.05
2022-08-11T08:44:20.682Z,3.42
2022-08-11T08:45:34.426Z,2.90
2022-08-11T08:46:50.704Z,2.55
2022-08-11T08:48:03.591Z,3.08
2022-08-11T08:49:23.884Z,3.30
2022-08-11T08:50:55.670Z,2.72
2022-08-11T08:52:26.274Z,3.20
2022-08-11T08:53:52.178Z,2.97
2022-08-11T08:55:05.653Z,2.85
2022-08-11T08:56:17.720Z,3.30
2022-08-11T08:57:39.216Z,3.25
2022-08-11T08:58:51.771Z,2.65
2022-08-11T09:00:05.285Z,3.33
2022-08-11T09:01:21.307Z,2.90
2022-08-11T09:02:43.799Z,2.25
2022-08-11T09:04:06.580Z,2.58
2022-08-11T09:05:21.402Z,2.88
2022-08-11T09:06:33.434Z,3.15
2022-08-11T09:07:47.661Z,2.70
2022-08-11T09:09:00.070Z,2.88
2022-08-11T09:10:12.093Z,3.05
2022-08-11T09:11:42.782Z,2.70
2022-08-11T09:12:54.509Z,2.80
2022-08-11T09:14:10.366Z,2.33
2022-08-11T09:15:24.678Z,2.97
2022-08-11T09:16:36.827Z,2.50
2022-08-11T09:17:50.472Z,3.00
2022-08-11T09:19:02.878Z,2.47
2022-08-11T09:20:22.524Z,2.53
2022-08-11T09:21:34.264Z,3.22
2022-08-11T09:25:11.104Z,2.33
2022-08-11T09:26:41.327Z,2.58
2022-08-11T09:27:53.574Z,2.50
2022-08-11T09:29:05.627Z,2.50
2022-08-11T09:30:19.265Z,2.42
2022-08-11T09:31:39.007Z,2.95
2022-08-11T09:32:59.451Z,3.03
2022-08-11T09:34:11.564Z,2.88
2022-08-11T09:35:23.726Z,2.47
2022-08-11T09:36:54.236Z,3.05
2022-08-11T09:38:24.779Z,2.65
2022-08-11T09:39:56.337Z,3.13
2022-08-11T09:41:08.820Z,2.13
2022-08-11T09:42:23.995Z,2.47
2022-08-11T09:44:00.986Z,2.35
2022-08-11T09:45:16.594Z,2.33
2022-08-11T09:46:28.815Z,2.83
2022-08-11T09:47:40.620Z,2.55
2022-08-11T09:48:54.414Z,2.35
2022-08-11T09:50:06.571Z,2.35
2022-08-11T09:51:18.150Z,2.45
2022-08-11T09:52:35.985Z,3.03
2022-08-11T09:54:02.813Z,2.28
2022-08-11T09:55:16.427Z,2.25
2022-08-11T09:56:47.531Z,2.47
2022-08-11T09:58:43.393Z,2.42
2022-08-11T09:59:48.327Z,2.72
2022-08-11T10:01:02.247Z,2.92
2022-08-11T10:02:14.198Z,2.65
2022-08-11T10:03:26.534Z,2.70
2022-08-11T10:04:42.454Z,2.75
2022-08-11T10:06:17.827Z,2.50
2022-08-11T10:07:29.608Z,2.60
2022-08-11T10:08:42.588Z,2.58
2022-08-11T10:09:59.533Z,2.97
2022-08-11T10:11:17.212Z,2.10
2022-08-11T10:12:32.510Z,2.30
2022-08-11T10:14:33.623Z,2.17
2022-08-11T10:15:38.369Z,2.30
2022-08-11T10:16:51.186Z,2.03
2022-08-11T10:18:26.769Z,2.33
2022-08-11T10:19:38.890Z,2.45
2022-08-11T10:20:51.454Z,2.95
2022-08-11T10:22:23.325Z,2.70
2022-08-11T10:24:01.296Z,2.22
2022-08-11T10:25:35.794Z,2.30
2022-08-11T10:27:02.847Z,2.83
2022-08-11T10:28:28.776Z,2.80
2022-08-11T10:30:03.871Z,2.88
2022-08-11T10:31:56.951Z,3.00
2022-08-11T10:33:37.645Z,9.27
2022-08-11T10:34:57.818Z,5.80
2022-08-11T10:36:16.335Z,3.40
2022-08-11T10:38:07.305Z,2.70
2022-08-11T10:39:06.822Z,2.85
2022-08-11T10:40:22.399Z,2.45
2022-08-11T10:42:06.625Z,3.15
2022-08-11T10:44:02.045Z,2.50
2022-08-11T10:44:54.071Z,2.67
2022-08-11T10:46:28.579Z,3.08
2022-08-11T10:47:49.041Z,2.45
2022-08-11T10:49:02.053Z,2.45
2022-08-11T10:50:32.426Z,2.72
2022-08-11T10:52:02.793Z,2.67
2022-08-11T10:53:33.212Z,3.38
2022-08-11T10:55:03.675Z,2.90
2022-08-11T10:56:34.193Z,3.42
2022-08-11T10:58:05.355Z,2.50
2022-08-11T10:59:17.478Z,3.35
2022-08-11T11:00:29.089Z,2.60
2022-08-11T11:01:42.643Z,3.00
2022-08-11T11:03:21.911Z,3.13
2022-08-11T11:04:34.936Z,2.17
2022-08-11T11:06:27.694Z,2.70
2022-08-11T11:07:25.352Z,3.00
2022-08-11T11:08:56.500Z,2.58
2022-08-11T11:10:14.936Z,3.03
2022-08-11T11:11:46.579Z,2.33
2022-08-11T11:13:17.869Z,2.63
2022-08-11T11:14:56.399Z,2.60
2022-08-11T11:16:29.286Z,2.42
2022-08-11T11:17:56.597Z,2.65
2022-08-11T11:19:11.296Z,2.53
2022-08-11T11:20:35.900Z,2.30
2022-08-11T11:21:53.930Z,2.33
2022-08-11T11:23:14.352Z,2.53
2022-08-11T11:24:48.660Z,2.53
2022-08-11T11:26:27.118Z,2.70
2022-08-11T11:27:49.100Z,2.30
2022-08-11T11:29:20.641Z,2.65
2022-08-11T11:30:44.925Z,2.80
2022-08-11T11:32:09.632Z,3.33
2022-08-11T11:33:57.432Z,2.80
2022-08-11T11:35:37.671Z,2.78
2022-08-11T11:36:50.682Z,3.42
2022-08-11T11:38:04.426Z,2.65
2022-08-11T11:39:24.335Z,2.95
2022-08-11T11:40:37.619Z,2.95
2022-08-11T11:41:51.440Z,2.90
2022-08-11T11:43:03.835Z,3.20
2022-08-11T11:44:15.779Z,2.90
2022-08-11T11:45:28.231Z,3.20
2022-08-11T11:46:40.917Z,3.60
2022-08-11T11:47:55.088Z,3.50
2022-08-11T11:49:15.866Z,3.30
2022-08-11T11:50:37.016Z,3.40
2022-08-11T11:51:49.994Z,3.92
2022-08-11T11:53:07.120Z,3.40
2022-08-11T11:54:22.470Z,3.33
2022-08-11T11:55:34.275Z,3.40
2022-08-11T11:56:46.336Z,3.63
2022-08-11T11:58:18.469Z,4.22
2022-08-11T11:59:50.196Z,3.58
2022-08-11T12:01:17.302Z,3.55
2022-08-11T12:02:28.884Z,3.05
2022-08-11T12:03:40.881Z,3.60
2022-08-11T12:04:52.684Z,3.60
2022-08-11T12:06:05.037Z,3.33
2022-08-11T12:07:35.505Z,3.55
2022-08-11T12:08:49.111Z,4.13
2022-08-11T12:10:00.759Z,3.58
2022-08-11T12:11:31.392Z,3.10
2022-08-11T12:13:01.279Z,3.53
2022-08-11T12:14:15.701Z,3.33
2022-08-11T12:16:06.509Z,4.15
2022-08-11T12:16:59.175Z,3.65
2022-08-11T12:18:11.520Z,3.28
2022-08-11T12:19:24.670Z,2.90
2022-08-11T12:20:37.461Z,3.65
2022-08-11T12:22:07.881Z,2.85
2022-08-11T12:23:38.353Z,3.15
2022-08-11T12:25:08.387Z,3.03
2022-08-11T12:26:39.418Z,2.77
2022-08-11T12:27:53.337Z,3.00
2022-08-11T12:29:06.227Z,2.50
2022-08-11T12:30:19.194Z,3.07
2022-08-11T12:31:31.426Z,3.17
2022-08-11T12:32:43.584Z,2.97
2022-08-11T12:34:00.661Z,2.87
2022-08-11T12:35:15.781Z,3.00
2022-08-11T12:36:27.355Z,3.13
2022-08-11T12:37:44.744Z,3.43
2022-08-11T12:38:56.558Z,3.13
2022-08-11T12:40:43.076Z,2.40
2022-08-11T12:42:19.432Z,2.63
2022-08-11T12:43:57.013Z,2.00
2022-08-11T12:45:28.843Z,2.40
2022-08-11T12:46:42.892Z,2.50
2022-08-11T12:48:59.879Z,2.23
2022-08-11T12:50:21.778Z,2.60
2022-08-11T12:52:11.159Z,2.30
2022-08-11T12:53:29.427Z,2.80
2022-08-11T12:54:59.266Z,2.40
2022-08-11T12:56:30.334Z,3.03
2022-08-11T12:58:04.353Z,2.97
2022-08-11T12:59:34.353Z,2.47
2022-08-11T13:01:05.233Z,2.43
2022-08-11T13:02:44.365Z,2.70
2022-08-11T13:04:14.459Z,2.23
2022-08-11T13:05:26.191Z,2.20
2022-08-11T13:06:38.818Z,2.37
2022-08-11T13:07:51.413Z,2.47
2022-08-11T13:09:03.586Z,2.23
2022-08-11T13:10:40.215Z,2.23
2022-08-11T13:12:10.447Z,2.13
2022-08-11T13:13:54.580Z,2.50
2022-08-11T13:14:54.643Z,1.90
2022-08-11T13:16:07.080Z,2.63
2022-08-11T13:17:21.841Z,1.90
2022-08-11T13:18:53.968Z,2.00
2022-08-11T13:20:06.543Z,2.00
2022-08-11T13:21:20.553Z,2.37
2022-08-11T13:22:32.652Z,2.00
2022-08-11T13:24:00.265Z,2.10
2022-08-11T13:25:16.182Z,2.00
2022-08-11T13:26:45.037Z,1.93
2022-08-11T13:28:01.351Z,1.73
2022-08-11T13:29:15.186Z,1.70
2022-08-11T13:30:47.423Z,1.73
2022-08-11T13:32:04.572Z,2.30
2022-08-11T13:33:19.763Z,1.90
2022-08-11T13:34:32.281Z,1.90
2022-08-11T13:35:45.846Z,3.13
2022-08-11T13:37:00.286Z,2.23
2022-08-11T13:38:18.624Z,2.20
2022-08-11T13:39:33.481Z,2.37
2022-08-11T13:40:55.674Z,1.73
2022-08-11T13:42:08.211Z,2.67
2022-08-11T13:43:20.443Z,1.73
2022-08-11T13:44:34.536Z,1.93
2022-08-11T13:45:47.978Z,1.63
2022-08-11T13:47:01.728Z,2.03
2022-08-11T13:48:14.110Z,1.53
2022-08-11T13:49:26.171Z,2.07
2022-08-11T13:50:56.798Z,1.87
2022-08-11T13:52:15.498Z,1.83
2022-08-11T13:53:27.877Z,1.83
2022-08-11T13:54:40.133Z,2.17
2022-08-11T13:55:52.732Z,1.93
2022-08-11T13:57:13.551Z,2.47
2022-08-11T13:58:41.116Z,2.40
2022-08-11T14:00:13.345Z,2.37
2022-08-11T14:02:19.972Z,2.20
2022-08-11T14:03:13.380Z,2.03
2022-08-11T14:04:32.426Z,2.30
2022-08-11T14:05:49.082Z,2.00
2022-08-11T14:07:04.954Z,2.80
2022-08-11T14:08:37.126Z,2.17
2022-08-11T14:09:56.407Z,2.47
2022-08-11T14:12:23.794Z,2.20
2022-08-11T14:13:21.344Z,2.77
2022-08-11T14:14:35.567Z,1.73
2022-08-11T14:15:48.674Z,2.00
2022-08-11T14:17:04.079Z,1.97
2022-08-11T14:18:20.545Z,1.77
2022-08-11T14:19:33.049Z,2.53
2022-08-11T14:21:05.286Z,1.93
2022-08-11T14:22:17.211Z,2.47
2022-08-11T14:23:33.160Z,2.37
2022-08-11T14:24:49.579Z,2.13
2022-08-11T14:26:20.036Z,2.30
2022-08-11T14:28:30.078Z,2.00
2022-08-11T14:29:08.996Z,2.37
2022-08-11T14:30:39.418Z,2.00
2022-08-11T14:31:54.002Z,2.37
2022-08-11T14:33:16.651Z,2.07
2022-08-11T14:34:30.789Z,1.93
2022-08-11T14:35:44.444Z,2.17
2022-08-11T14:37:05.851Z,2.23
2022-08-11T14:38:19.842Z,2.27
2022-08-11T14:39:38.731Z,2.40
2022-08-11T14:41:10.564Z,2.03
2022-08-11T14:42:41.942Z,2.63
2022-08-11T14:44:14.881Z,2.00
2022-08-11T14:45:57.853Z,2.43
2022-08-11T14:47:32.558Z,2.30
2022-08-11T14:48:44.751Z,2.47
2022-08-11T14:50:10.233Z,1.97
2022-08-11T14:51:24.488Z,2.00
2022-08-11T14:52:36.121Z,2.00
2022-08-11T14:53:58.431Z,2.00
2022-08-11T14:55:30.062Z,1.90
2022-08-11T14:56:44.279Z,1.70
2022-08-11T14:57:57.068Z,2.13
2022-08-11T14:59:08.891Z,2.00
2022-08-11T15:00:20.591Z,1.80
2022-08-11T15:01:50.506Z,2.13
2022-08-11T15:03:12.901Z,1.67
2022-08-11T15:04:36.248Z,2.23
2022-08-11T15:05:56.135Z,2.53
2022-08-11T15:07:16.756Z,2.23
2022-08-11T15:08:49.187Z,2.00
2022-08-11T15:10:14.061Z,1.80
2022-08-11T15:11:47.974Z,1.70
2022-08-11T15:12:59.684Z,2.50
2022-08-11T15:14:13.615Z,2.00
2022-08-11T15:15:45.145Z,1.60
2022-08-11T15:17:09.367Z,1.63
2022-08-11T15:18:24.381Z,1.70
2022-08-11T15:19:40.998Z,2.27
2022-08-11T15:21:11.525Z,2.10
2022-08-11T15:22:41.930Z,2.27
2022-08-11T15:24:12.588Z,2.20
2022-08-11T15:25:24.393Z,2.33
2022-08-11T15:26:57.250Z,2.37
2022-08-11T15:28:28.981Z,2.13
2022-08-11T15:30:00.108Z,2.17
2022-08-11T15:31:42.400Z,2.30
2022-08-11T15:33:24.747Z,2.60
2022-08-11T15:34:55.304Z,2.93
2022-08-11T15:36:27.623Z,2.60
2022-08-11T15:37:41.557Z,2.30
2022-08-11T15:39:01.086Z,2.00
2022-08-11T15:40:33.245Z,2.27
2022-08-11T15:42:20.531Z,2.33
2022-08-11T15:43:59.807Z,2.27
2022-08-11T15:45:32.573Z,2.70
2022-08-11T15:46:46.016Z,2.50
2022-08-11T15:48:05.957Z,2.50
2022-08-11T15:50:11.128Z,2.20
2022-08-11T15:51:09.385Z,2.60
2022-08-11T15:52:28.000Z,2.20
2022-08-11T15:53:41.040Z,2.13
2022-08-11T15:54:52.775Z,1.87
2022-08-11T15:56:05.421Z,2.40
2022-08-11T15:57:39.535Z,2.57
2022-08-11T15:59:41.028Z,2.20
2022-08-11T16:01:04.345Z,2.43
2022-08-11T16:02:25.487Z,2.20
2022-08-11T16:04:08.005Z,2.47
2022-08-11T16:05:46.030Z,2.67
2022-08-11T16:06:52.159Z,2.50
2022-08-11T16:08:04.318Z,2.30
2022-08-11T16:09:20.751Z,2.50
2022-08-11T16:10:34.546Z,2.30
2022-08-11T16:11:47.137Z,2.77
2022-08-11T16:13:05.826Z,2.33
2022-08-11T16:14:38.139Z,2.50
2022-08-11T16:16:09.408Z,2.60
2022-08-11T16:17:22.003Z,3.37
2022-08-11T16:18:42.468Z,2.93
2022-08-11T16:19:54.707Z,2.57
2022-08-11T16:21:26.807Z,2.20
2022-08-11T16:23:00.373Z,2.13
2022-08-11T16:27:01.683Z,2.50
2022-08-11T16:27:06.119Z,3.37
2022-08-11T16:27:23.880Z,2.40
2022-08-11T16:28:36.431Z,2.27
2022-08-11T16:29:50.541Z,2.10
2022-08-11T16:31:02.601Z,2.03
2022-08-11T16:32:24.090Z,2.37
2022-08-11T16:33:50.410Z,2.20
2022-08-11T16:35:29.107Z,2.03
2022-08-11T16:36:59.409Z,3.13
2022-08-11T16:38:31.624Z,2.40
2022-08-11T16:39:43.728Z,2.70
2022-08-11T16:41:00.800Z,2.43
2022-08-11T16:43:05.440Z,2.30
2022-08-11T16:44:32.888Z,2.20
2022-08-11T16:46:07.890Z,2.60
2022-08-11T16:47:38.909Z,2.00
2022-08-11T16:48:53.605Z,2.63
2022-08-11T16:50:05.483Z,2.03
2022-08-11T16:51:20.906Z,2.63
2022-08-11T16:52:32.592Z,2.80
2022-08-11T16:54:03.644Z,2.77
2022-08-11T16:55:41.858Z,2.50
2022-08-11T16:56:49.806Z,2.07
2022-08-11T16:58:20.143Z,2.50
2022-08-11T16:59:37.115Z,2.33
2022-08-11T17:00:50.599Z,2.37
2022-08-11T17:02:35.745Z,2.17
2022-08-11T17:04:09.868Z,2.23
2022-08-11T17:05:54.751Z,2.83
2022-08-11T17:07:42.023Z,2.27
2022-08-11T17:09:13.052Z,2.30
2022-08-11T17:10:53.642Z,2.47
2022-08-11T17:12:24.921Z,1.90
2022-08-11T17:13:47.244Z,2.23
2022-08-11T17:15:00.828Z,2.60
2022-08-11T17:16:13.717Z,2.20
2022-08-11T17:17:27.656Z,2.20
2022-08-11T17:18:54.476Z,2.33
2022-08-11T17:20:41.041Z,2.20
2022-08-11T17:22:18.084Z,2.03
2022-08-11T17:23:52.495Z,1.97
2022-08-11T17:25:05.524Z,2.47
2022-08-11T17:26:19.009Z,2.10
2022-08-11T17:27:31.059Z,2.47
2022-08-11T17:28:43.351Z,2.23
2022-08-11T17:29:57.677Z,2.17
2022-08-11T17:31:29.746Z,2.10
2022-08-11T17:33:01.807Z,2.43
2022-08-11T17:34:32.423Z,2.83
2022-08-11T17:35:45.212Z,2.30
2022-08-11T17:36:57.957Z,2.63
2022-08-11T17:38:15.467Z,2.67
2022-08-11T17:39:30.105Z,2.17
2022-08-11T17:41:03.470Z,2.63
2022-08-11T17:42:36.073Z,2.20
2022-08-11T17:44:06.951Z,2.37
2022-08-11T17:45:41.804Z,2.47
2022-08-11T17:47:12.624Z,2.73
2022-08-11T17:48:27.826Z,2.70
2022-08-11T17:49:39.922Z,2.33
2022-08-11T17:50:53.821Z,3.00
2022-08-11T17:52:25.125Z,2.33
2022-08-11T17:54:16.932Z,2.53
2022-08-11T17:55:53.881Z,2.63
2022-08-11T17:57:25.638Z,2.37
2022-08-11T17:58:57.078Z,2.40
2022-08-11T18:00:09.165Z,2.67
2022-08-11T18:01:21.779Z,2.40
2022-08-11T18:02:57.646Z,2.87
2022-08-11T18:04:10.514Z,3.00
2022-08-11T18:05:24.865Z,2.50
2022-08-11T18:06:37.176Z,2.43
2022-08-11T18:08:08.936Z,2.77
2022-08-11T18:09:39.859Z,3.27
2022-08-11T18:11:10.667Z,3.00
2022-08-11T18:12:40.518Z,3.97
2022-08-11T18:14:11.285Z,3.00
2022-08-11T18:15:55.513Z,2.73
2022-08-11T18:17:25.985Z,2.83
2022-08-11T18:18:56.140Z,2.20
2022-08-11T18:20:26.756Z,2.30
2022-08-11T18:22:08.321Z,3.10
2022-08-11T18:23:46.924Z,3.13
2022-08-11T18:25:20.366Z,2.90
2022-08-11T18:26:50.847Z,2.53
2022-08-11T18:28:22.635Z,2.40
2022-08-11T18:29:53.560Z,2.70
2022-08-11T18:31:24.444Z,2.60
2022-08-11T18:33:09.185Z,3.07
2022-08-11T18:34:50.485Z,2.73
2022-08-11T18:36:20.621Z,2.50
2022-08-11T18:37:53.747Z,2.47
2022-08-11T18:39:25.160Z,2.93
2022-08-11T18:40:56.278Z,2.43
2022-08-11T18:42:31.314Z,3.17
2022-08-11T18:44:08.837Z,2.43
2022-08-11T18:45:45.652Z,3.00
2022-08-11T18:47:17.761Z,2.83
2022-08-11T18:48:49.776Z,2.90
2022-08-11T18:50:29.373Z,2.90
2022-08-11T18:52:11.144Z,2.53